Airfield :
LOGIN :

Register | Disclaimer

   EN    FR    IT 

 










Legend :    VFR   Marginal VFR   IFR   Intensive IFR   Very Intensive IFR
Visi :
Ceiling :
>= 8 km
>= 3000ft
5 to 8 km
1000 to 3000 ft
1500m to 5 km
500 to 1000 ft
800 to 1500m
200 to 500 ft
< 800m
< 200 ft
Symbols :   Thunderstorms  Fog  Heavy snow  Heavy precipitations  Wind > 20 kt
SIGMETs :     Misc.  Thunderstorms  Icing  Turbulence  Mountain Waves  Volcanic Ashes






- Airport Elevation : 527 ft
- IATA code : DBV


LDDU - Dubrovnik

CURRENT METAR :
  • 152030Z 14022KT 9999 FEW036 SCT046 BKN070 18/13 Q1016 TEMPO 14025G35KT

EXPIRED METARs :
  • 152000Z 14022KT 9999 FEW043 SCT050 BKN070 18/13 Q1016 TEMPO 14025G35KT
  • 151930Z 14023KT 9999 FEW023 SCT056 BKN070 18/13 Q1016 TEMPO 14025G35KT
  • 151900Z 14022KT 9999 FEW023 SCT046 BKN056 18/13 Q1016 TEMPO 14025G35KT
  • 151830Z 14022G32KT 9999 FEW023 SCT050 18/13 Q1015 NOSIG
  • 151800Z 14023KT 9999 FEW020 SCT027 SCT050 18/13 Q1015 TEMPO 14025G35KT

TAF TAF LDDU
Valid from the 15 at 18:00 until the 16 at 18:00 UTC


151725Z 1518/1618 14020KT 9999 SCT015 BKN040 TX18/1518Z TN16/1605Z
TEMPO 1518/1618 14025G35KT
PROB30
TEMPO 1520/1604 SHRA SCT015 FEW020TCU BKN040



MET'MAP, your aeronautical weather chart ! - Copyright ORBIFLY December 2007 - Disclaimer

ORBIFLY MET'MAP TEAM :

Programming & Development : Alexandra Zaïnal
Concept & Development : Baudouin d'Aumeries
Co-Development & Prog : Marc-Olivier Méhu
Technical & hardware support : Manuel Goepfert

Contact : metmap@orbifly.com




SOURCES & CREDITS :

   NOAA